createdAt,value
2016-10-01T00:04:55.245Z,-75
2016-10-01T00:09:51.909Z,-74
2016-10-01T00:14:49.132Z,-76
2016-10-01T00:19:45.946Z,-75
2016-10-01T00:24:42.602Z,-74
2016-10-01T00:29:38.966Z,-75
2016-10-01T00:34:36.040Z,-74
2016-10-01T00:39:32.603Z,-74
2016-10-01T00:44:28.992Z,-75
2016-10-01T00:49:25.809Z,-75
2016-10-01T00:54:23.398Z,-73
2016-10-01T00:59:19.953Z,-74
2016-10-01T01:04:17.373Z,-75
2016-10-01T01:09:14.382Z,-75
2016-10-01T01:14:10.862Z,-75
2016-10-01T01:19:08.383Z,-75
2016-10-01T01:24:04.607Z,-74
2016-10-01T01:29:02.559Z,-78
2016-10-01T01:33:59.307Z,-76
2016-10-01T01:38:55.705Z,-78
2016-10-01T01:43:52.309Z,-74
2016-10-01T01:48:49.231Z,-72
2016-10-01T01:53:45.623Z,-75
2016-10-01T01:58:41.837Z,-75
2016-10-01T02:03:38.722Z,-75
2016-10-01T02:08:35.148Z,-74
2016-10-01T02:13:31.305Z,-73
2016-10-01T02:18:27.759Z,-72
2016-10-01T02:23:24.740Z,-75
2016-10-01T02:28:21.281Z,-75
2016-10-01T02:33:17.702Z,-75
2016-10-01T02:38:14.656Z,-78
2016-10-01T02:43:15.657Z,-78
2016-10-01T02:48:13.629Z,-79
2016-10-01T02:53:09.879Z,-78
2016-10-01T02:58:06.718Z,-78
2016-10-01T03:03:04.132Z,-78
2016-10-01T03:08:01.018Z,-79
2016-10-01T03:12:57.219Z,-79
2016-10-01T03:17:53.826Z,-78
2016-10-01T03:22:50.551Z,-79
2016-10-01T03:27:48.803Z,-79
2016-10-01T03:32:45.087Z,-79
2016-10-01T03:37:43.003Z,-79
2016-10-01T03:42:39.171Z,-80
2016-10-01T03:47:36.033Z,-79
2016-10-01T03:52:32.605Z,-76
2016-10-01T03:57:30.455Z,-79
2016-10-01T04:02:26.649Z,-78
2016-10-01T04:07:23.260Z,-80
2016-10-01T04:12:19.609Z,-79
2016-10-01T04:17:17.088Z,-80
2016-10-01T04:22:13.625Z,-79
2016-10-01T04:27:16.332Z,-79
2016-10-01T04:32:11.827Z,-76
2016-10-01T04:37:09.882Z,-77
2016-10-01T04:42:05.820Z,-79
2016-10-01T04:47:02.305Z,-79
2016-10-01T04:51:59.355Z,-78
2016-10-01T04:56:56.179Z,-79
2016-10-01T05:01:52.716Z,-78
2016-10-01T05:06:49.448Z,-79
2016-10-01T05:11:46.618Z,-78
2016-10-01T05:16:43.184Z,-76
2016-10-01T05:21:40.430Z,-77
2016-10-01T05:26:37.254Z,-78
2016-10-01T05:31:34.082Z,-78
2016-10-01T05:36:30.740Z,-78
2016-10-01T05:41:27.535Z,-78
2016-10-01T05:46:24.369Z,-79
2016-10-01T05:51:21.178Z,-79
2016-10-01T05:56:17.988Z,-80
2016-10-01T06:01:14.542Z,-80
2016-10-01T06:06:10.834Z,-79
2016-10-01T06:11:07.758Z,-79
2016-10-01T06:16:04.456Z,-80
2016-10-01T06:21:01.335Z,-75
2016-10-01T06:25:58.093Z,-75
2016-10-01T06:30:56.952Z,-77
2016-10-01T06:35:53.638Z,-76
2016-10-01T06:40:50.417Z,-75
2016-10-01T06:45:47.303Z,-78
2016-10-01T06:50:43.794Z,-77
2016-10-01T06:55:40.508Z,-78
2016-10-01T07:00:37.264Z,-79
2016-10-01T07:05:34.617Z,-78
2016-10-01T07:15:31.522Z,-75
2016-10-01T07:20:28.076Z,-76
2016-10-01T07:25:24.679Z,-75
2016-10-01T07:30:21.491Z,-76
2016-10-01T07:35:19.124Z,-77
2016-10-01T07:40:15.809Z,-78
2016-10-01T07:45:12.606Z,-78
2016-10-01T07:50:09.206Z,-77
2016-10-01T07:55:05.625Z,-78
2016-10-01T08:00:02.653Z,-77
2016-10-01T08:04:59.193Z,-78
2016-10-01T08:09:56.274Z,-77
2016-10-01T08:14:53.127Z,-75
2016-10-01T08:19:50.908Z,-79
2016-10-01T08:24:47.325Z,-78
2016-10-01T08:29:43.947Z,-75
2016-10-01T08:34:40.625Z,-78
2016-10-01T08:39:37.199Z,-77
2016-10-01T08:44:34.982Z,-79
2016-10-01T08:49:31.126Z,-79
2016-10-01T08:54:27.693Z,-76
2016-10-01T08:59:24.592Z,-79
2016-10-01T09:04:21.071Z,-78
2016-10-01T09:09:17.799Z,-78
2016-10-01T09:14:14.635Z,-78
2016-10-01T09:19:11.401Z,-78
2016-10-01T09:24:08.255Z,-77
2016-10-01T09:29:05.555Z,-77
2016-10-01T09:34:02.182Z,-76
2016-10-01T09:39:00.076Z,-81
2016-10-01T09:43:56.510Z,-80
2016-10-01T09:48:53.493Z,-80
2016-10-01T09:53:50.120Z,-81
2016-10-01T09:58:47.007Z,-78
2016-10-01T10:03:43.605Z,-78
2016-10-01T10:08:41.956Z,-79
2016-10-01T10:13:38.714Z,-83
2016-10-01T10:18:38.332Z,-79
2016-10-01T10:23:35.179Z,-81
2016-10-01T10:28:31.279Z,-77
2016-10-01T10:33:29.151Z,-83
2016-10-01T10:38:25.922Z,-80
2016-10-01T10:43:22.129Z,-75
2016-10-01T10:48:20.402Z,-78
2016-10-01T10:53:17.191Z,-83
2016-10-01T10:58:14.041Z,-79
2016-10-01T11:03:11.780Z,-80
2016-10-01T11:08:07.762Z,-80
2016-10-01T11:13:04.606Z,-79
2016-10-01T11:18:01.331Z,-75
2016-10-01T11:23:00.802Z,-76
2016-10-01T11:27:57.266Z,-75
2016-10-01T11:32:53.041Z,-78
2016-10-01T11:37:51.156Z,-75
2016-10-01T11:42:48.031Z,-78
2016-10-01T11:47:45.193Z,-76
2016-10-01T11:52:40.925Z,-80
2016-10-01T11:57:37.070Z,-75
2016-10-01T12:02:32.780Z,-78
2016-10-01T12:07:28.567Z,-77
2016-10-01T12:12:25.548Z,-75
2016-10-01T12:17:23.005Z,-76
2016-10-01T12:22:19.322Z,-73
2016-10-01T12:27:17.017Z,-77
2016-10-01T12:32:13.459Z,-81
2016-10-01T12:37:10.232Z,-78
2016-10-01T12:42:06.737Z,-81
2016-10-01T12:47:03.529Z,-82
2016-10-01T12:52:00.154Z,-81
2016-10-01T13:02:03.254Z,-81
2016-10-01T13:07:00.032Z,-79
2016-10-01T13:11:56.920Z,-82
2016-10-01T13:16:53.342Z,-74
2016-10-01T13:21:49.480Z,-76
2016-10-01T13:26:45.953Z,-78
2016-10-01T13:31:42.335Z,-81
2016-10-01T13:36:39.155Z,-81
2016-10-01T13:41:35.868Z,-80
2016-10-01T13:46:32.947Z,-81
2016-10-01T13:51:29.270Z,-80
2016-10-01T13:56:26.151Z,-83
2016-10-01T14:01:22.876Z,-79
2016-10-01T14:06:19.543Z,-82
2016-10-01T14:11:16.201Z,-83
2016-10-01T14:16:12.910Z,-83
2016-10-01T14:21:09.420Z,-81
2016-10-01T14:26:05.947Z,-79
2016-10-01T14:31:02.398Z,-75
2016-10-01T14:35:58.970Z,-79
2016-10-01T14:40:56.474Z,-82
2016-10-01T14:45:52.485Z,-83
2016-10-01T14:50:49.128Z,-81
2016-10-01T14:55:45.842Z,-80
2016-10-01T15:00:42.566Z,-81
2016-10-01T15:05:41.071Z,-79
2016-10-01T15:10:37.778Z,-81
2016-10-01T15:15:35.010Z,-83
2016-10-01T15:20:32.146Z,-85
2016-10-01T15:25:29.454Z,-83
2016-10-01T15:30:28.009Z,-83
2016-10-01T15:35:24.195Z,-81
2016-10-01T15:40:20.620Z,-80
2016-10-01T15:45:18.348Z,-81
2016-10-01T15:50:14.935Z,-79
2016-10-01T15:55:12.316Z,-82
2016-10-01T16:00:08.462Z,-79
2016-10-01T16:05:05.189Z,-75
2016-10-01T16:10:01.936Z,-76
2016-10-01T16:14:58.922Z,-75
2016-10-01T16:19:55.484Z,-77
2016-10-01T16:24:52.045Z,-78
2016-10-01T16:29:48.563Z,-77
2016-10-01T16:34:45.036Z,-76
2016-10-01T16:39:41.540Z,-78
2016-10-01T16:44:38.169Z,-77
2016-10-01T16:49:35.257Z,-76
2016-10-01T16:54:31.714Z,-77
2016-10-01T16:59:27.940Z,-79
2016-10-01T17:04:24.723Z,-78
2016-10-01T17:09:21.575Z,-80
2016-10-01T17:14:17.956Z,-83
2016-10-01T17:19:14.667Z,-79
2016-10-01T17:24:11.515Z,-79
2016-10-01T17:29:08.175Z,-79
2016-10-01T17:34:06.081Z,-78
2016-10-01T17:39:02.225Z,-80
2016-10-01T17:43:58.899Z,-75
2016-10-01T17:48:55.367Z,-78
2016-10-01T17:53:51.873Z,-77
2016-10-01T18:03:44.884Z,-76
2016-10-01T18:08:42.543Z,-76
2016-10-01T18:13:38.848Z,-77
2016-10-01T18:18:35.377Z,-75
2016-10-01T18:23:31.931Z,-80
2016-10-01T18:28:28.485Z,-79
2016-10-01T18:33:25.758Z,-79
2016-10-01T18:38:22.188Z,-75
2016-10-01T18:43:18.713Z,-74
2016-10-01T18:48:15.341Z,-73
2016-10-01T18:53:12.226Z,-77
2016-10-01T18:58:08.707Z,-76
2016-10-01T19:03:05.007Z,-73
2016-10-01T19:08:01.755Z,-76
2016-10-01T19:12:58.932Z,-73
2016-10-01T19:17:55.453Z,-74
2016-10-01T19:22:51.897Z,-73
2016-10-01T19:27:48.799Z,-74
2016-10-01T19:32:44.877Z,-75
2016-10-01T19:37:41.453Z,-74
2016-10-01T19:42:37.973Z,-74
2016-10-01T19:47:34.573Z,-76
2016-10-01T19:52:31.188Z,-74
2016-10-01T19:57:27.762Z,-71
2016-10-01T20:02:24.668Z,-74
2016-10-01T20:07:21.384Z,-72
2016-10-01T20:12:17.942Z,-75
2016-10-01T20:17:14.427Z,-75
2016-10-01T20:22:11.536Z,-78
2016-10-01T20:27:08.321Z,-84
2016-10-01T20:32:04.839Z,-78
2016-10-01T20:37:01.499Z,-82
2016-10-01T20:41:58.345Z,-80
2016-10-01T20:46:55.474Z,-81
2016-10-01T20:51:52.560Z,-76
2016-10-01T20:56:49.015Z,-75
2016-10-01T21:01:45.303Z,-77
2016-10-01T21:06:41.844Z,-75
2016-10-01T21:11:38.158Z,-76
2016-10-01T21:16:34.843Z,-78
2016-10-01T21:21:31.185Z,-77
2016-10-01T21:26:27.743Z,-76
2016-10-01T21:31:24.285Z,-77
2016-10-01T21:36:20.772Z,-75
2016-10-01T21:41:18.074Z,-75
2016-10-01T21:46:14.910Z,-78
2016-10-01T21:51:11.042Z,-75
2016-10-01T21:56:07.418Z,-76
2016-10-01T22:01:04.086Z,-79
2016-10-01T22:06:00.580Z,-77
2016-10-01T22:10:57.446Z,-77
2016-10-01T22:15:53.935Z,-75
2016-10-01T22:20:50.519Z,-76
2016-10-01T22:25:46.815Z,-76
2016-10-01T22:30:43.277Z,-76
2016-10-01T22:35:40.122Z,-75
2016-10-01T22:40:37.947Z,-75
2016-10-01T22:45:34.947Z,-77
2016-10-01T22:50:31.500Z,-76
2016-10-01T22:55:28.162Z,-75
2016-10-01T23:00:24.811Z,-74
2016-10-01T23:05:21.735Z,-75
2016-10-01T23:10:18.358Z,-77
2016-10-01T23:15:15.017Z,-77
2016-10-01T23:20:11.381Z,-77
2016-10-01T23:25:08.066Z,-75
2016-10-01T23:30:04.727Z,-75
2016-10-01T23:35:01.245Z,-74
2016-10-01T23:39:57.877Z,-78
2016-10-01T23:44:54.567Z,-76
2016-10-01T23:49:52.227Z,-77
2016-10-01T23:54:48.890Z,-76
2016-10-01T23:59:46.771Z,-77
